Terminal Aerodrome Forecast
Issued by NWS Sioux Falls, SD

Home | Current Version | Previous Version | Graphics & Text | Print | Product List | Glossary On
Versions: 1 2 3 4 5 6 7 8 9 10 11 12 13
146
FTUS43 KFSD 231723
TAFHON
TAF
KHON 231723Z 2318/2418 05013G21KT P6SM VCSH OVC080
     FM232100 04017G25KT P6SM OVC040
     FM232300 03018G24KT P6SM -SN OVC035
     FM240300 02019G29KT 6SM -SN OVC035
     FM240900 01021G31KT P6SM OVC040
     FM241100 36018G26KT P6SM OVC045=

USA.gov is the U.S. government's official web portal to all federal, state and local government web resources and services.